createdAt,value
2017-05-27T00:00:23.292Z,31.1
2017-05-27T00:01:23.335Z,31.1
2017-05-27T00:02:24.393Z,31.1
2017-05-27T00:03:26.237Z,31.1
2017-05-27T00:04:23.551Z,31.1
2017-05-27T00:05:23.510Z,31.1
2017-05-27T00:06:24.608Z,31.1
2017-05-27T00:07:23.759Z,31
2017-05-27T00:08:24.860Z,31.1
2017-05-27T00:09:25.087Z,31.1
2017-05-27T00:10:24.992Z,31.1
2017-05-27T00:11:23.799Z,31
2017-05-27T00:12:23.820Z,31.1
2017-05-27T00:13:23.908Z,31.1
2017-05-27T00:14:23.952Z,31.1
2017-05-27T00:15:24.985Z,31.1
2017-05-27T00:16:25.298Z,31.1
2017-05-27T00:17:24.229Z,31.1
2017-05-27T00:18:25.873Z,31.1
2017-05-27T00:19:24.382Z,31.1
2017-05-27T00:20:24.345Z,31.1
2017-05-27T00:21:25.999Z,31.1
2017-05-27T00:22:25.766Z,31.1
2017-05-27T00:23:25.439Z,31.1
2017-05-27T00:24:24.581Z,31.1
2017-05-27T00:25:25.540Z,31.1
2017-05-27T00:26:24.420Z,31.1
2017-05-27T00:27:26.341Z,31.1
2017-05-27T00:28:24.708Z,31.1
2017-05-27T00:29:24.450Z,31.1
2017-05-27T00:30:25.665Z,31.1
2017-05-27T00:31:25.736Z,31.1
2017-05-27T00:32:24.715Z,31.1
2017-05-27T00:33:25.818Z,31.1
2017-05-27T00:34:26.618Z,31.1
2017-05-27T00:35:26.473Z,31.1
2017-05-27T00:36:25.606Z,31.1
2017-05-27T00:37:25.816Z,31.1
2017-05-27T00:38:24.830Z,31.1
2017-05-27T00:39:24.825Z,31.1
2017-05-27T00:40:25.911Z,31.1
2017-05-27T00:41:26.378Z,31.1
2017-05-27T00:42:25.834Z,31.1
2017-05-27T00:43:27.115Z,31.1
2017-05-27T00:44:26.604Z,31.1
2017-05-27T00:45:26.689Z,31.1
2017-05-27T00:46:25.327Z,31.1
2017-05-27T00:47:26.491Z,31.1
2017-05-27T00:48:25.463Z,31.1
2017-05-27T00:49:26.445Z,31.1
2017-05-27T00:50:25.407Z,31.1
2017-05-27T00:51:25.415Z,31.1
2017-05-27T00:52:26.605Z,31.1
2017-05-27T00:53:26.537Z,31.1
2017-05-27T00:54:26.576Z,31.1
2017-05-27T00:55:26.611Z,31.1
2017-05-27T00:56:26.668Z,31.1
2017-05-27T00:57:25.662Z,31.1
2017-05-27T00:58:26.820Z,31.1
2017-05-27T00:59:26.948Z,31.1
2017-05-27T01:00:25.798Z,31.1
2017-05-27T01:01:26.993Z,31.1
2017-05-27T01:02:25.982Z,31.1
2017-05-27T01:03:26.971Z,31.1
2017-05-27T01:04:27.086Z,31.1
2017-05-27T01:05:26.001Z,31.1
2017-05-27T01:06:27.088Z,31.1
2017-05-27T01:07:27.148Z,31.1
2017-05-27T01:08:27.221Z,31.1
2017-05-27T01:09:26.292Z,31.1
2017-05-27T01:10:26.312Z,31.1
2017-05-27T01:11:27.455Z,31.1
2017-05-27T01:12:27.423Z,31.1
2017-05-27T01:13:26.460Z,31.1
2017-05-27T01:14:26.409Z,31.1
2017-05-27T01:15:27.610Z,31.1
2017-05-27T01:16:27.684Z,31.1
2017-05-27T01:17:26.717Z,31
2017-05-27T01:18:27.752Z,31.1
2017-05-27T01:19:27.836Z,31.1
2017-05-27T01:20:27.756Z,31.1
2017-05-27T01:21:27.828Z,31.1
2017-05-27T01:22:26.786Z,31.1
2017-05-27T01:23:26.965Z,31.1
2017-05-27T01:24:26.875Z,31.1
2017-05-27T01:25:26.909Z,31.1
2017-05-27T01:26:27.108Z,31.1
2017-05-27T01:27:27.046Z,31
2017-05-27T01:28:27.073Z,31.1
2017-05-27T01:29:28.195Z,31.1
2017-05-27T01:30:27.266Z,31.1
2017-05-27T01:31:27.277Z,31.1
2017-05-27T01:32:28.430Z,31.1
2017-05-27T01:33:28.532Z,31
2017-05-27T01:34:27.395Z,31
2017-05-27T01:35:27.387Z,31
2017-05-27T01:36:27.438Z,31.1
2017-05-27T01:37:28.595Z,31.1
2017-05-27T01:38:28.677Z,31.1
2017-05-27T01:39:27.593Z,31.1
2017-05-27T01:40:28.695Z,31.1
2017-05-27T01:41:28.724Z,31.1
2017-05-27T01:42:27.769Z,31.1
2017-05-27T01:43:27.891Z,31.1
2017-05-27T01:44:28.895Z,31.1
2017-05-27T01:45:27.935Z,31.1
2017-05-27T01:46:29.640Z,31.1
2017-05-27T01:47:27.998Z,31.1
2017-05-27T01:48:27.955Z,31.1
2017-05-27T01:49:28.085Z,31.1
2017-05-27T01:50:29.230Z,31.1
2017-05-27T01:51:28.264Z,31.1
2017-05-27T01:52:28.368Z,31.1
2017-05-27T01:53:28.402Z,31.1
2017-05-27T01:54:29.527Z,31.1
2017-05-27T01:55:29.623Z,31.1
2017-05-27T01:56:29.733Z,31.1
2017-05-27T01:57:28.587Z,31.1
2017-05-27T01:58:28.625Z,31.1
2017-05-27T01:59:28.755Z,31.1
2017-05-27T02:00:29.889Z,31.1
2017-05-27T02:01:29.494Z,31.1
2017-05-27T02:02:28.986Z,31.1
2017-05-27T02:03:29.976Z,31.1
2017-05-27T02:04:28.942Z,31.1
2017-05-27T02:05:28.952Z,31.1
2017-05-27T02:06:29.132Z,31.1
2017-05-27T02:07:30.827Z,31.1
2017-05-27T02:08:29.077Z,31.1
2017-05-27T02:09:29.116Z,31.1
2017-05-27T02:10:29.766Z,31.1
2017-05-27T02:11:30.229Z,31.1
2017-05-27T02:12:30.268Z,31.1
2017-05-27T02:13:29.849Z,31
2017-05-27T02:14:30.449Z,31
2017-05-27T02:15:29.425Z,31.1
2017-05-27T02:16:29.428Z,31
2017-05-27T02:17:29.495Z,31.1
2017-05-27T02:18:29.533Z,31.1
2017-05-27T02:19:30.549Z,31.1
2017-05-27T02:20:30.620Z,31
2017-05-27T02:21:29.517Z,31.1
2017-05-27T02:22:29.600Z,31
2017-05-27T02:23:31.090Z,31.1
2017-05-27T02:24:30.734Z,31
2017-05-27T02:25:29.755Z,31.1
2017-05-27T02:26:30.746Z,31.1
2017-05-27T02:27:29.701Z,31.1
2017-05-27T02:28:30.819Z,31
2017-05-27T02:29:29.925Z,31.1
2017-05-27T02:30:30.928Z,31.1
2017-05-27T02:31:30.653Z,31.1
2017-05-27T02:32:30.046Z,31.1
2017-05-27T02:33:31.838Z,31.1
2017-05-27T02:34:30.188Z,31.1
2017-05-27T02:35:30.121Z,31.1
2017-05-27T02:36:30.336Z,31.1
2017-05-27T02:37:31.674Z,31.1
2017-05-27T02:38:30.510Z,31
2017-05-27T02:39:30.443Z,31.1
2017-05-27T02:40:31.596Z,31.1
2017-05-27T02:41:31.669Z,31.1
2017-05-27T02:42:30.539Z,31.1
2017-05-27T02:43:30.662Z,31.1
2017-05-27T02:44:31.721Z,31.1
2017-05-27T02:45:31.710Z,31.1
2017-05-27T02:46:31.806Z,31.1
2017-05-27T02:47:30.750Z,31.1
2017-05-27T02:48:31.854Z,31.1
2017-05-27T02:49:31.852Z,31.1
2017-05-27T02:50:32.004Z,31.1
2017-05-27T02:51:31.053Z,31.1
2017-05-27T02:52:31.036Z,31.1
2017-05-27T02:53:31.176Z,31.1
2017-05-27T02:54:31.177Z,31.1
2017-05-27T02:55:32.283Z,31.1
2017-05-27T02:56:32.405Z,31.1
2017-05-27T02:57:31.361Z,31.1
2017-05-27T02:58:31.368Z,31.1
2017-05-27T02:59:32.513Z,31.1
2017-05-27T03:00:32.616Z,31.1
2017-05-27T03:01:32.708Z,31.1
2017-05-27T03:02:31.601Z,31.1
2017-05-27T03:03:32.802Z,31.1
2017-05-27T03:04:31.667Z,31.1
2017-05-27T03:05:31.660Z,31.1
2017-05-27T03:06:31.815Z,31.1
2017-05-27T03:07:32.893Z,31.1
2017-05-27T03:08:31.775Z,31.1
2017-05-27T03:09:31.793Z,31.1
2017-05-27T03:10:31.890Z,31.1
2017-05-27T03:11:31.933Z,31.1
2017-05-27T03:12:32.053Z,31.1
2017-05-27T03:13:32.061Z,31.1
2017-05-27T03:14:33.270Z,31.1
2017-05-27T03:15:32.276Z,31.1
2017-05-27T03:16:32.266Z,31.1
2017-05-27T03:17:32.384Z,31.1
2017-05-27T03:18:33.388Z,31.1
2017-05-27T03:19:33.505Z,31.1
2017-05-27T03:20:32.470Z,31.1
2017-05-27T03:21:32.460Z,31.1
2017-05-27T03:22:33.584Z,31.1
2017-05-27T03:23:33.692Z,31.1
2017-05-27T03:24:32.640Z,31.1
2017-05-27T03:25:32.644Z,31.1
2017-05-27T03:26:33.857Z,31.1
2017-05-27T03:27:32.773Z,31.1
2017-05-27T03:28:33.984Z,31.1
2017-05-27T03:29:34.078Z,31.1
2017-05-27T03:30:34.065Z,31.1
2017-05-27T03:31:34.074Z,31.1
2017-05-27T03:32:34.173Z,31.1
2017-05-27T03:33:34.290Z,31.1
2017-05-27T03:34:33.221Z,31.1
2017-05-27T03:35:34.290Z,31.1
2017-05-27T03:36:34.321Z,31.1
2017-05-27T03:37:33.138Z,31.1
2017-05-27T03:38:33.255Z,31.1
2017-05-27T03:39:34.319Z,31.1
2017-05-27T03:40:34.316Z,31.1
2017-05-27T03:41:34.421Z,31.1
2017-05-27T03:42:33.373Z,31.1
2017-05-27T03:43:53.665Z,31.1
2017-05-27T03:44:53.476Z,31.1
2017-05-27T03:45:53.559Z,31.1
2017-05-27T03:46:53.610Z,31.1
2017-05-27T03:47:52.496Z,31.1
2017-05-27T03:48:53.671Z,31.1
2017-05-27T03:49:53.945Z,31.1
2017-05-27T03:50:52.627Z,31.1
2017-05-27T03:51:53.711Z,31.1
2017-05-27T03:52:52.772Z,31.1
2017-05-27T03:53:52.733Z,31.1
2017-05-27T03:54:53.944Z,31.1
2017-05-27T03:55:53.177Z,31
2017-05-27T03:56:52.946Z,31
2017-05-27T03:57:53.078Z,31
2017-05-27T03:58:53.004Z,31
2017-05-27T03:59:54.211Z,31
2017-05-27T04:00:53.155Z,31
2017-05-27T04:01:54.491Z,31
2017-05-27T04:02:53.267Z,31
2017-05-27T04:03:54.264Z,31
2017-05-27T04:04:54.341Z,31
2017-05-27T04:05:53.398Z,31
2017-05-27T04:06:54.477Z,31
2017-05-27T04:07:54.758Z,31
2017-05-27T04:08:53.398Z,31
2017-05-27T04:09:54.633Z,31
2017-05-27T04:10:53.590Z,31
2017-05-27T04:11:53.507Z,31
2017-05-27T04:12:53.650Z,31
2017-05-27T04:13:53.897Z,31
2017-05-27T04:14:53.627Z,31
2017-05-27T04:15:54.781Z,31
2017-05-27T04:16:54.769Z,31
2017-05-27T04:17:53.757Z,31
2017-05-27T04:18:53.924Z,31
2017-05-27T04:19:55.251Z,31
2017-05-27T04:20:54.949Z,31
2017-05-27T04:21:54.053Z,31
2017-05-27T04:22:54.049Z,31
2017-05-27T04:23:54.161Z,31
2017-05-27T04:24:54.179Z,31
2017-05-27T04:25:54.554Z,31
2017-05-27T04:26:55.335Z,31
2017-05-27T04:27:54.380Z,31
2017-05-27T04:28:55.481Z,31
2017-05-27T04:29:55.625Z,30.9
2017-05-27T04:30:54.563Z,30.9
2017-05-27T04:31:56.131Z,30.9
2017-05-27T04:32:54.768Z,30.9
2017-05-27T04:33:54.779Z,31
2017-05-27T04:34:55.929Z,31
2017-05-27T04:35:54.935Z,30.9
2017-05-27T04:36:56.081Z,30.9
2017-05-27T04:37:56.458Z,30.9
2017-05-27T04:38:55.101Z,30.9
2017-05-27T04:39:55.113Z,30.9
2017-05-27T04:40:55.311Z,30.9
2017-05-27T04:41:56.456Z,30.9
2017-05-27T04:42:55.418Z,30.9
2017-05-27T04:43:56.594Z,30.9
2017-05-27T04:44:55.521Z,30.9
2017-05-27T04:45:55.643Z,30.9
2017-05-27T04:46:55.709Z,30.9
2017-05-27T04:47:56.855Z,30.9
2017-05-27T04:48:55.730Z,30.9
2017-05-27T04:49:56.812Z,30.9
2017-05-27T04:50:55.872Z,30.9
2017-05-27T04:51:55.873Z,30.9
2017-05-27T04:52:56.945Z,30.9
2017-05-27T04:53:57.109Z,30.9
2017-05-27T04:54:56.142Z,30.9
2017-05-27T04:55:56.125Z,30.9
2017-05-27T04:56:57.139Z,30.9
2017-05-27T04:57:56.109Z,30.9
2017-05-27T04:58:56.285Z,30.9
2017-05-27T04:59:56.279Z,30.9
2017-05-27T05:00:57.835Z,30.9
2017-05-27T05:01:57.573Z,30.9
2017-05-27T05:02:56.605Z,30.8
2017-05-27T05:03:56.609Z,30.8
2017-05-27T05:04:57.691Z,30.8
2017-05-27T05:05:57.749Z,30.8
2017-05-27T05:06:58.142Z,30.8
2017-05-27T05:07:56.914Z,30.8
2017-05-27T05:08:58.007Z,30.8
2017-05-27T05:09:57.039Z,30.8
2017-05-27T05:10:57.041Z,30.8
2017-05-27T05:11:57.041Z,30.8
2017-05-27T05:12:57.419Z,30.8
2017-05-27T05:13:58.149Z,30.8
2017-05-27T05:14:58.273Z,30.8
2017-05-27T05:15:58.345Z,30.8
2017-05-27T05:16:58.279Z,30.8
2017-05-27T05:17:57.379Z,30.8
2017-05-27T05:18:58.759Z,30.8
2017-05-27T05:19:57.403Z,30.8
2017-05-27T05:20:57.561Z,30.8
2017-05-27T05:21:57.446Z,30.8
2017-05-27T05:22:58.575Z,30.8
2017-05-27T05:23:57.635Z,30.8
2017-05-27T05:24:59.006Z,30.8
2017-05-27T05:25:58.669Z,30.8
2017-05-27T05:26:58.718Z,30.8
2017-05-27T05:27:57.793Z,30.8
2017-05-27T05:28:58.890Z,30.8
2017-05-27T05:29:58.847Z,30.8
2017-05-27T05:30:58.058Z,30.8
2017-05-27T05:31:57.842Z,30.8
2017-05-27T05:32:59.083Z,30.8
2017-05-27T05:33:59.136Z,30.8
2017-05-27T05:34:59.135Z,30.8
2017-05-27T05:35:58.053Z,30.8
2017-05-27T05:36:58.438Z,30.7
2017-05-27T05:37:58.130Z,30.7
2017-05-27T05:38:58.304Z,30.7
2017-05-27T05:39:58.202Z,30.7
2017-05-27T05:40:59.288Z,30.7
2017-05-27T05:41:58.303Z,30.7
2017-05-27T05:42:58.671Z,30.7
2017-05-27T05:43:58.499Z,30.7
2017-05-27T05:44:58.438Z,30.7
2017-05-27T05:45:58.473Z,30.7
2017-05-27T05:46:58.508Z,30.7
2017-05-27T05:47:59.715Z,30.7
2017-05-27T05:48:58.925Z,30.7
2017-05-27T05:49:59.784Z,30.7
2017-05-27T05:50:59.779Z,30.7
2017-05-27T05:51:59.825Z,30.7
2017-05-27T05:52:58.920Z,30.7
2017-05-27T05:53:58.950Z,30.7
2017-05-27T05:55:00.222Z,30.7
2017-05-27T05:56:00.031Z,30.6
2017-05-27T05:56:59.035Z,30.6
2017-05-27T05:57:59.132Z,30.6
2017-05-27T05:59:00.130Z,30.6
2017-05-27T05:59:59.139Z,30.6
2017-05-27T06:00:59.546Z,30.6
2017-05-27T06:01:59.297Z,30.6
2017-05-27T06:02:59.294Z,30.6
2017-05-27T06:03:59.394Z,30.6
2017-05-27T06:05:00.464Z,30.6
2017-05-27T06:06:00.576Z,30.6
2017-05-27T06:06:59.804Z,30.6
2017-05-27T06:08:00.661Z,30.6
2017-05-27T06:09:00.687Z,30.6
2017-05-27T06:09:59.643Z,30.6
2017-05-27T06:11:00.776Z,30.5
2017-05-27T06:12:00.759Z,30.5
2017-05-27T06:13:00.004Z,30.5
2017-05-27T06:13:59.737Z,30.5
2017-05-27T06:14:59.762Z,30.6
2017-05-27T06:16:00.923Z,30.5
2017-05-27T06:17:00.899Z,30.5
2017-05-27T06:18:00.003Z,30.5
2017-05-27T06:19:01.366Z,30.5
2017-05-27T06:20:00.090Z,30.5
2017-05-27T06:21:00.166Z,30.5
2017-05-27T06:22:01.161Z,30.5
2017-05-27T06:23:01.209Z,30.5
2017-05-27T06:24:00.237Z,30.5
2017-05-27T06:25:01.706Z,30.5
2017-05-27T06:26:00.442Z,30.5
2017-05-27T06:27:01.438Z,30.5
2017-05-27T06:28:00.414Z,30.5
2017-05-27T06:29:01.509Z,30.5
2017-05-27T06:30:01.619Z,30.5
2017-05-27T06:31:01.932Z,30.5
2017-05-27T06:32:01.691Z,30.5
2017-05-27T06:33:01.819Z,30.5
2017-05-27T06:34:00.675Z,30.5
2017-05-27T06:35:01.783Z,30.4
2017-05-27T06:36:00.869Z,30.4
2017-05-27T06:37:01.081Z,30.4
2017-05-27T06:38:02.000Z,30.4
2017-05-27T06:39:02.101Z,30.4
2017-05-27T06:40:01.122Z,30.4
2017-05-27T06:41:01.179Z,30.4
2017-05-27T06:42:01.208Z,30.4
2017-05-27T06:43:02.584Z,30.5
2017-05-27T06:44:01.233Z,30.4
2017-05-27T06:45:01.358Z,30.4
2017-05-27T06:46:02.404Z,30.5
2017-05-27T06:47:02.432Z,30.5
2017-05-27T06:48:02.449Z,30.5
2017-05-27T06:49:01.842Z,30.5
2017-05-27T06:50:01.600Z,30.4
2017-05-27T06:51:01.586Z,30.4
2017-05-27T06:52:02.727Z,30.5
2017-05-27T06:53:02.789Z,30.5
2017-05-27T06:54:01.640Z,30.4
2017-05-27T06:55:02.133Z,30.5
2017-05-27T06:56:01.896Z,30.4
2017-05-27T06:57:01.865Z,30.5
2017-05-27T06:58:01.974Z,30.5
2017-05-27T06:59:03.057Z,30.5
2017-05-27T07:00:02.022Z,30.5
2017-05-27T07:01:03.473Z,30.5
2017-05-27T07:02:02.081Z,30.5
2017-05-27T07:03:02.150Z,30.5
2017-05-27T07:04:02.216Z,30.5
2017-05-27T07:05:03.458Z,30.5
2017-05-27T07:06:03.469Z,30.5
2017-05-27T07:07:02.697Z,30.5
2017-05-27T07:08:03.555Z,30.5
2017-05-27T07:09:02.509Z,30.5
2017-05-27T07:10:03.590Z,30.5
2017-05-27T07:11:03.665Z,30.5
2017-05-27T07:12:03.719Z,30.4
2017-05-27T07:13:04.051Z,30.4
2017-05-27T07:14:03.845Z,30.4
2017-05-27T07:15:04.037Z,30.4
2017-05-27T07:16:03.984Z,30.3
2017-05-27T07:17:04.097Z,30.3
2017-05-27T07:18:04.093Z,30.3
2017-05-27T07:19:04.381Z,30.3
2017-05-27T07:20:04.206Z,30.3
2017-05-27T07:21:04.210Z,30.3
2017-05-27T07:22:03.195Z,30.3
2017-05-27T07:23:04.394Z,30.3
2017-05-27T07:24:04.421Z,30.3
2017-05-27T07:25:04.797Z,30.3
2017-05-27T07:26:04.556Z,30.3
2017-05-27T07:27:04.851Z,30.3
2017-05-27T07:28:05.237Z,30.3
2017-05-27T07:29:03.633Z,30.3
2017-05-27T07:30:04.627Z,30.3
2017-05-27T07:31:04.977Z,30.2
2017-05-27T07:32:04.906Z,30.2
2017-05-27T07:33:03.814Z,30.2
2017-05-27T07:34:03.906Z,30.2
2017-05-27T07:35:04.983Z,30.2
2017-05-27T07:36:04.062Z,30.2
2017-05-27T07:37:05.405Z,30.2
2017-05-27T07:38:05.142Z,30.2
2017-05-27T07:39:05.149Z,30.2
2017-05-27T07:40:04.110Z,30.1
2017-05-27T07:41:04.204Z,30.1
2017-05-27T07:42:05.303Z,30.2
2017-05-27T07:43:05.573Z,30.2
2017-05-27T07:44:04.270Z,30.2
2017-05-27T07:45:04.267Z,30.2
2017-05-27T07:46:04.464Z,30.2
2017-05-27T07:47:04.485Z,30.2
2017-05-27T07:48:04.528Z,30.1
2017-05-27T07:49:05.049Z,30.1
2017-05-27T07:50:04.758Z,30.1
2017-05-27T07:51:04.722Z,30.1
2017-05-27T07:52:05.873Z,30.1
2017-05-27T07:53:04.871Z,30.1
2017-05-27T07:54:05.871Z,30.1
2017-05-27T07:55:05.101Z,30.1
2017-05-27T07:56:06.044Z,30.1
2017-05-27T07:57:04.999Z,30.1
2017-05-27T07:58:06.161Z,30.1
2017-05-27T07:59:05.216Z,30.1
2017-05-27T08:00:06.293Z,30.1
2017-05-27T08:01:05.521Z,30.1
2017-05-27T08:02:06.306Z,30.1
2017-05-27T08:03:06.405Z,30.1
2017-05-27T08:04:05.358Z,30.1
2017-05-27T08:05:06.415Z,30
2017-05-27T08:06:06.430Z,30
2017-05-27T08:07:05.800Z,30
2017-05-27T08:08:06.637Z,30
2017-05-27T08:09:06.744Z,30
2017-05-27T08:10:05.626Z,30
2017-05-27T08:11:06.808Z,30
2017-05-27T08:12:05.696Z,30
2017-05-27T08:13:07.129Z,30
2017-05-27T08:14:05.728Z,30
2017-05-27T08:15:06.844Z,29.9
2017-05-27T08:16:06.990Z,29.9
2017-05-27T08:17:05.871Z,30
2017-05-27T08:18:06.047Z,30
2017-05-27T08:19:07.316Z,30
2017-05-27T08:20:07.081Z,30
2017-05-27T08:21:07.131Z,30
2017-05-27T08:22:06.128Z,30
2017-05-27T08:23:06.143Z,30
2017-05-27T08:24:07.333Z,30
2017-05-27T08:25:06.602Z,30
2017-05-27T08:26:07.418Z,30
2017-05-27T08:27:07.360Z,30
2017-05-27T08:28:06.429Z,30
2017-05-27T08:29:07.478Z,30
2017-05-27T08:30:06.423Z,30.1
2017-05-27T08:31:07.848Z,30.1
2017-05-27T08:32:06.479Z,30.1
2017-05-27T08:33:07.557Z,30.1
2017-05-27T08:34:07.688Z,30.1
2017-05-27T08:35:07.723Z,30.1
2017-05-27T08:36:07.814Z,30.1
2017-05-27T08:37:07.108Z,30.1
2017-05-27T08:38:06.738Z,30.1
2017-05-27T08:39:07.295Z,30.1
2017-05-27T08:40:06.959Z,30.1
2017-05-27T08:41:06.949Z,30.1
2017-05-27T08:42:06.976Z,30
2017-05-27T08:43:08.272Z,30
2017-05-27T08:44:07.083Z,30
2017-05-27T08:45:08.131Z,30
2017-05-27T08:46:07.099Z,30
2017-05-27T08:47:07.146Z,30
2017-05-27T08:48:07.283Z,30
2017-05-27T08:49:08.639Z,30
2017-05-27T08:50:08.364Z,30
2017-05-27T08:51:07.437Z,30
2017-05-27T08:52:07.452Z,30
2017-05-27T08:53:07.644Z,30
2017-05-27T08:54:08.699Z,30
2017-05-27T08:55:07.941Z,30
2017-05-27T08:56:08.742Z,29.9
2017-05-27T08:57:08.809Z,29.6
2017-05-27T08:58:08.877Z,29.1
2017-05-27T08:59:07.970Z,28.6
2017-05-27T09:00:09.476Z,28.1
2017-05-27T09:01:10.003Z,27.7
2017-05-27T09:02:07.912Z,27.5
2017-05-27T09:03:08.052Z,27.6
2017-05-27T09:04:09.075Z,27.8
2017-05-27T09:05:08.034Z,28
2017-05-27T09:06:09.118Z,28.1
2017-05-27T09:07:08.375Z,28.2
2017-05-27T09:08:08.293Z,28.3
2017-05-27T09:09:08.301Z,28.3
2017-05-27T09:10:08.232Z,28.3
2017-05-27T09:11:09.314Z,28.4
2017-05-27T09:12:09.423Z,28.5
2017-05-27T09:13:08.728Z,28.5
2017-05-27T09:14:09.514Z,28.6
2017-05-27T09:15:08.458Z,28.6
2017-05-27T09:16:08.440Z,28.7
2017-05-27T09:17:08.465Z,28.8
2017-05-27T09:18:09.579Z,28.9
2017-05-27T09:19:09.947Z,28.9
2017-05-27T09:20:09.694Z,29
2017-05-27T09:21:08.633Z,29
2017-05-27T09:22:09.762Z,29.1
2017-05-27T09:23:08.710Z,29.1
2017-05-27T09:24:09.832Z,29.1
2017-05-27T09:25:10.180Z,29.2
2017-05-27T09:26:09.934Z,29.2
2017-05-27T09:27:08.957Z,29.2
2017-05-27T09:28:08.990Z,29.3
2017-05-27T09:29:10.024Z,29.3
2017-05-27T09:30:09.028Z,29.3
2017-05-27T09:31:09.429Z,29.4
2017-05-27T09:32:10.286Z,29.4
2017-05-27T09:33:09.243Z,29.4
2017-05-27T09:34:09.298Z,29.4
2017-05-27T09:35:09.405Z,29.5
2017-05-27T09:36:10.826Z,29.5
2017-05-27T09:37:09.559Z,29.5
2017-05-27T09:38:10.622Z,29.5
2017-05-27T09:39:09.624Z,29.5
2017-05-27T09:40:10.177Z,29.6
2017-05-27T09:41:10.254Z,29.6
2017-05-27T09:42:10.960Z,29.6
2017-05-27T09:43:09.610Z,29.6
2017-05-27T09:44:10.829Z,29.7
2017-05-27T09:45:09.769Z,29.7
2017-05-27T09:46:09.867Z,29.7
2017-05-27T09:47:09.995Z,29.7
2017-05-27T09:48:10.313Z,29.8
2017-05-27T09:49:10.056Z,29.8
2017-05-27T09:50:10.095Z,29.8
2017-05-27T09:51:10.015Z,29.9
2017-05-27T09:52:11.852Z,29.9
2017-05-27T09:53:10.162Z,29.9
2017-05-27T09:54:11.649Z,29.9
2017-05-27T09:55:10.257Z,30
2017-05-27T09:56:11.380Z,30
2017-05-27T09:57:11.473Z,30
2017-05-27T09:58:10.497Z,30
2017-05-27T09:59:12.197Z,30
2017-05-27T10:00:11.881Z,30
2017-05-27T10:01:10.581Z,30
2017-05-27T10:02:11.640Z,30.1
2017-05-27T10:03:10.552Z,30.1
2017-05-27T10:04:11.808Z,30.1
2017-05-27T10:05:11.740Z,30.1
2017-05-27T10:06:11.081Z,30.1
2017-05-27T10:07:10.740Z,30.1
2017-05-27T10:08:11.913Z,30.1
2017-05-27T10:09:10.943Z,30.1
2017-05-27T10:10:11.950Z,30.1
2017-05-27T10:11:11.028Z,30.1
2017-05-27T10:12:11.264Z,30.1
2017-05-27T10:13:11.782Z,30.1
2017-05-27T10:14:12.142Z,30.1
2017-05-27T10:15:12.217Z,30.1
2017-05-27T10:16:12.247Z,30.1
2017-05-27T10:17:11.388Z,30.1
2017-05-27T10:18:11.615Z,30.1
2017-05-27T10:19:12.464Z,30.1
2017-05-27T10:20:12.566Z,30.1
2017-05-27T10:21:11.459Z,30.1
2017-05-27T10:22:12.622Z,30.1
2017-05-27T10:23:12.705Z,30.1
2017-05-27T10:24:12.983Z,30.1
2017-05-27T10:25:11.669Z,30.1
2017-05-27T10:26:11.711Z,30.1
2017-05-27T10:27:11.728Z,30.1
2017-05-27T10:28:13.480Z,30.1
2017-05-27T10:29:11.898Z,30.1
2017-05-27T10:30:13.254Z,30.1
2017-05-27T10:31:12.986Z,30.1
2017-05-27T10:32:13.019Z,30.1
2017-05-27T10:33:13.093Z,30.1
2017-05-27T10:34:12.075Z,30.1
2017-05-27T10:35:12.163Z,30.1
2017-05-27T10:36:12.630Z,30.1
2017-05-27T10:37:12.274Z,30.1
2017-05-27T10:38:13.401Z,30.1
2017-05-27T10:39:12.435Z,30.1
2017-05-27T10:40:13.630Z,30.1
2017-05-27T10:41:13.600Z,30.1
2017-05-27T10:42:14.020Z,30.1
2017-05-27T10:43:13.768Z,30.1
2017-05-27T10:44:12.609Z,30.1
2017-05-27T10:45:12.604Z,30.1
2017-05-27T10:46:13.778Z,30.1
2017-05-27T10:47:13.834Z,30.1
2017-05-27T10:48:13.089Z,30.1
2017-05-27T10:49:12.759Z,30.1
2017-05-27T10:50:12.906Z,30.1
2017-05-27T10:51:13.901Z,30.2
2017-05-27T10:52:14.062Z,30.2
2017-05-27T10:53:14.074Z,30.1
2017-05-27T10:54:14.336Z,30.1
2017-05-27T10:55:14.088Z,30.1
2017-05-27T10:56:14.236Z,30.2
2017-05-27T10:57:13.200Z,30.1
2017-05-27T10:58:14.349Z,30.1
2017-05-27T10:59:14.291Z,30.1
2017-05-27T11:00:13.543Z,30.1
2017-05-27T11:01:13.450Z,30.1
2017-05-27T11:02:13.462Z,30.1
2017-05-27T11:03:13.390Z,30.1
2017-05-27T11:04:13.411Z,30.1
2017-05-27T11:05:13.545Z,30.1
2017-05-27T11:06:13.896Z,30.1
2017-05-27T11:07:13.734Z,30.1
2017-05-27T11:08:14.822Z,30.1
2017-05-27T11:09:14.909Z,30.1
2017-05-27T11:10:13.853Z,30.1
2017-05-27T11:11:14.930Z,30.1
2017-05-27T11:12:14.180Z,30.1
2017-05-27T11:13:15.092Z,30.1
2017-05-27T11:14:14.032Z,30.1
2017-05-27T11:15:15.016Z,30.1
2017-05-27T11:16:14.085Z,30.1
2017-05-27T11:17:14.112Z,30.1
2017-05-27T11:18:16.004Z,30.1
2017-05-27T11:19:15.255Z,30.1
2017-05-27T11:20:15.377Z,30.1
2017-05-27T11:21:14.341Z,30.1
2017-05-27T11:22:14.249Z,30.1
2017-05-27T11:23:15.371Z,30.1
2017-05-27T11:24:15.857Z,30.1
2017-05-27T11:25:15.473Z,30.1
2017-05-27T11:26:14.546Z,30.1
2017-05-27T11:27:14.504Z,30.1
2017-05-27T11:28:15.653Z,30.1
2017-05-27T11:29:15.684Z,30.1
2017-05-27T11:30:16.062Z,30.1
2017-05-27T11:31:15.768Z,30.1
2017-05-27T11:32:15.715Z,30.1
2017-05-27T11:33:14.712Z,30.1
2017-05-27T11:34:15.874Z,30.1
2017-05-27T11:35:15.806Z,30.1
2017-05-27T11:36:16.141Z,30.1
2017-05-27T11:37:14.887Z,30.1
2017-05-27T11:38:16.043Z,30.1
2017-05-27T11:39:16.052Z,30.1
2017-05-27T11:40:15.970Z,30.1
2017-05-27T11:41:14.961Z,30.1
2017-05-27T11:42:16.379Z,30.1
2017-05-27T11:43:16.083Z,30.1
2017-05-27T11:44:16.207Z,30.1
2017-05-27T11:45:15.233Z,30.1
2017-05-27T11:46:15.260Z,30.1
2017-05-27T11:47:16.334Z,30.2
2017-05-27T11:48:15.556Z,30.2
2017-05-27T11:49:16.351Z,30.2
2017-05-27T11:50:15.290Z,30.2
2017-05-27T11:51:15.323Z,30.2
2017-05-27T11:52:15.360Z,30.2
2017-05-27T11:53:16.505Z,30.2
2017-05-27T11:54:15.852Z,30.2
2017-05-27T11:55:15.491Z,30.2
2017-05-27T11:56:15.656Z,30.2
2017-05-27T11:57:16.778Z,30.1
2017-05-27T11:58:15.635Z,30.1
2017-05-27T11:59:15.700Z,30.1
2017-05-27T12:00:17.094Z,30.2
2017-05-27T12:01:16.971Z,30.2
2017-05-27T12:02:16.946Z,30.2
2017-05-27T12:03:16.028Z,30.2
2017-05-27T12:04:16.073Z,30.2
2017-05-27T12:05:17.177Z,30.2
2017-05-27T12:06:18.281Z,30.2
2017-05-27T12:07:17.241Z,30.2
2017-05-27T12:08:16.313Z,30.2
2017-05-27T12:09:16.241Z,30.2
2017-05-27T12:10:17.338Z,30.2
2017-05-27T12:11:16.397Z,30.2
2017-05-27T12:12:17.712Z,30.2
2017-05-27T12:13:17.436Z,30.2
2017-05-27T12:14:17.495Z,30.2
2017-05-27T12:15:16.534Z,30.1
2017-05-27T12:16:16.476Z,30.1
2017-05-27T12:17:17.587Z,30.2
2017-05-27T12:18:16.911Z,30.2
2017-05-27T12:19:16.686Z,30.2
2017-05-27T12:20:17.860Z,30.2
2017-05-27T12:21:16.918Z,30.2
2017-05-27T12:22:17.945Z,30.2
2017-05-27T12:23:17.058Z,30.2
2017-05-27T12:24:17.417Z,30.1
2017-05-27T12:25:17.079Z,30.1
2017-05-27T12:26:17.173Z,30.1
2017-05-27T12:27:17.225Z,30.1
2017-05-27T12:28:18.397Z,30.1
2017-05-27T12:29:18.430Z,30.1
2017-05-27T12:30:17.594Z,30.1
2017-05-27T12:31:18.492Z,30.1
2017-05-27T12:32:17.423Z,30.1
2017-05-27T12:33:18.526Z,30.1
2017-05-27T12:34:18.528Z,30.1
2017-05-27T12:35:18.565Z,30.1
2017-05-27T12:36:17.900Z,30.1
2017-05-27T12:37:17.671Z,30.2
2017-05-27T12:38:18.778Z,30.2
2017-05-27T12:39:18.817Z,30.2
2017-05-27T12:40:17.766Z,30.2
2017-05-27T12:41:18.967Z,30.2
2017-05-27T12:42:18.119Z,30.2
2017-05-27T12:43:17.869Z,30.2
2017-05-27T12:44:19.089Z,30.2
2017-05-27T12:45:19.041Z,30.2
2017-05-27T12:46:18.141Z,30.2
2017-05-27T12:47:18.177Z,30.2
2017-05-27T12:48:19.594Z,30.2
2017-05-27T12:49:18.233Z,30.2
2017-05-27T12:50:19.231Z,30.2
2017-05-27T12:51:18.240Z,30.2
2017-05-27T12:52:19.364Z,30.2
2017-05-27T12:53:19.467Z,30.2
2017-05-27T12:54:19.832Z,30.2
2017-05-27T12:55:19.517Z,30.2
2017-05-27T12:56:19.571Z,30.2
2017-05-27T12:57:18.584Z,30.2
2017-05-27T12:58:19.736Z,30.2
2017-05-27T12:59:19.883Z,30.2
2017-05-27T13:00:20.099Z,30.2
2017-05-27T13:01:19.891Z,30.2
2017-05-27T13:02:18.964Z,30.2
2017-05-27T13:03:19.050Z,30.2
2017-05-27T13:04:18.997Z,30.2
2017-05-27T13:05:20.134Z,30.2
2017-05-27T13:06:19.528Z,30.2
2017-05-27T13:07:19.261Z,30.2
2017-05-27T13:08:20.286Z,30.2
2017-05-27T13:09:19.308Z,30.2
2017-05-27T13:10:19.386Z,30.2
2017-05-27T13:11:20.440Z,30.2
2017-05-27T13:12:21.468Z,30.2
2017-05-27T13:13:20.620Z,30.2
2017-05-27T13:14:20.664Z,30.2
2017-05-27T13:15:19.517Z,30.2
2017-05-27T13:16:20.646Z,30.2
2017-05-27T13:17:19.608Z,30.2
2017-05-27T13:18:20.005Z,30.2
2017-05-27T13:19:19.721Z,30.2
2017-05-27T13:20:19.795Z,30.2
2017-05-27T13:21:21.104Z,30.2
2017-05-27T13:22:19.917Z,30.1
2017-05-27T13:23:21.052Z,30.1
2017-05-27T13:24:21.389Z,30.1
2017-05-27T13:25:20.064Z,30.1
2017-05-27T13:26:21.234Z,30.1